Аэропорт Эдинбург: онлайн табло прилетов и вылетов аэропорта

1 пассажир, эконом
Взрослые 1
Дети до 12 лет 0
Дети до 2 лет 0

Онлайн табло Эдинбургского аэропорта расположено в самом удобном для обзора месте. Терминал всего один, поэтому по прибытию вы увидите всего одно здание. Продуманность которого и множество информационных табличек легко поможет вам сориентироваться в нем, и сможете найти всю информацию об интересующем вам рейсе на дисплее электронного табло. Для удобства вся информация отображена на английском языке, что соответствует информации в вашем посадочном талоне. Часовой пояс в Шотландии +0, поэтому разница с Москвой 3 часа.

До центра города 13 км от терминала, куда вы сможете добраться общественным наземным транспортом или воспользоваться услугами такси. Железная дорога или метро пока не соединяет город и аэропорт, поэтому будьте готовы сразу погрузится в довольно плотный трафик дорог с аэропорта.  Дорога до центра у вас может занять от 1-го до 2-х часов в зависимости времени суток. Стоимость билета на автобус будет порядка 400 рублей, а такси 2500-3000 рублей.

Также вся информация о рейсе находится на официальном сайте, где есть вся необходимая информация на онлайн табло, о прибытии и отбытии самолетов, об их задержках, начале регистрации, номеру стойки и ворот отбытия и прибытия.

Также по прибытию в Шотландию будьте готовы к высокой влажности и невысокой температуре воздуха и частым осадкам в виде дождя.

Рейс Борт Направление Перевозчик Время прибытия
FR 812 Boeing 737-800 Дублин — Эдинбург Ryanair 07:50, 06.08
EI 252 Airbus А320 Дублин — Эдинбург Aer Lingus 08:05, 06.08
U2 421 Airbus A319 Бристоль — Эдинбург Easyjet 08:20, 06.08
BA 1434 Airbus A319 Лондон — Эдинбург British Airways 09:20, 06.08
U2 481 Airbus A319 Белфаст — Эдинбург Easyjet 09:20, 06.08
IB 3048 Airbus A320 Мадрид — Эдинбург Iberia 09:40, 06.08
U2 231 Airbus А320 Лондон — Эдинбург Easyjet 09:40, 06.08
BA 8704 Embraer 190 Лондон — Эдинбург British Airways 09:45, 06.08
U2 803 Airbus А320 Лондон — Эдинбург Easyjet 09:45, 06.08
LM 390 Saab SF340A/340B Керкуолл — Эдинбург Loganair 09:50, 06.08
LM 322 Embraer RJ145 Саутгемптон — Эдинбург Loganair 10:00, 06.08
KL 1279 Embraer 190 Амстердам — Эдинбург KLM 10:10, 06.08
EI 316 Airbus А320 Белфаст — Эдинбург Aer Lingus 10:25, 06.08
FR 1286 Boeing 737-800 Марсель — Эдинбург Ryanair 10:30, 06.08
LM 352 ATR 42/ATR 72 FR/IT Сумбург — Эдинбург Loganair 10:55, 06.08
BA 1438 Airbus А320 Лондон — Эдинбург British Airways 11:00, 06.08
FR 2377 Boeing 737-800 Берлин — Эдинбург Ryanair 11:05, 06.08
LH 962 Airbus A319 Франкфурт-на-Майне — Эдинбург Lufthansa 11:05, 06.08
BA 2342 Embraer 190 Гернси — Эдинбург British Airways 11:50, 06.08
LM 314 Embraer RJ145 Каслтаун — Эдинбург Loganair 11:50, 06.08
FR 5833 Boeing 737-800 Бергамо — Эдинбург Ryanair 12:10, 06.08
FR 1069 Boeing 737-800 Тревизо — Эдинбург Ryanair 12:30, 06.08
FR 4525 Boeing 737-800 Варшава — Эдинбург Ryanair 12:30, 06.08
FR 1065 Boeing 737-800 Тулуза — Эдинбург Ryanair 12:30, 06.08
U2 483 Airbus А320 Белфаст — Эдинбург Easyjet 12:35, 06.08
FR 3171 Boeing 737-800 Рига — Эдинбург Ryanair 12:40, 06.08
FR 1052 Boeing 737-800 Нант — Эдинбург Ryanair 12:50, 06.08
FR 6827 Boeing 737-800 Фару — Эдинбург Ryanair 12:50, 06.08
LM 338 Embraer RJ145 Кардифф — Эдинбург Loganair 13:00, 06.08
BA 1442 Airbus А320 Лондон — Эдинбург British Airways 13:05, 06.08
U2 502 Airbus A319 Бирмингем — Эдинбург Easyjet 13:10, 06.08
LM 344 Saab SF340A/340B Сторновей — Эдинбург Loganair 13:10, 06.08
FR 6653 Boeing 737-800 Малага — Эдинбург Ryanair 13:20, 06.08
U2 13 Airbus А320 Лондон — Эдинбург Easyjet 13:20, 06.08
QR 29 Boeing 787-800 Доха — Эдинбург Qatar Airways 13:25, 06.08
LS 718 Boeing 737-800 Пальма-де-Майорка — Эдинбург Jet2.com 13:30, 06.08
U2 809 Airbus А320 Лондон — Эдинбург Easyjet 13:30, 06.08
FR 816 Boeing 737-800 Дублин — Эдинбург Ryanair 13:35, 06.08
LM 324 Embraer RJ145 Саутгемптон — Эдинбург Loganair 13:40, 06.08
FR 2355 Boeing 737-800 Люксембург — Эдинбург Ryanair 13:40, 06.08
FR 6657 Boeing 737-800 Пальма-де-Майорка — Эдинбург Ryanair 14:10, 06.08
LS 878 Boeing 737-800 Менорка — Эдинбург Jet2.com 14:45, 06.08
FR 1108 Boeing 737-800 Эйндховен — Эдинбург Ryanair 15:15, 06.08
LM 380 ATR 42/ATR 72 FR/IT Ньюквэй — Эдинбург Loganair 15:45, 06.08
FR 6627 Boeing 737-800 Лансароте — Эдинбург Ryanair 15:45, 06.08
AF 1486 Airbus A319 Париж — Эдинбург Air France 16:10, 06.08
KL 1289 Boeing 737-800 Амстердам — Эдинбург KLM 16:35, 06.08
LM 398 Saab SF340A/340B Керкуолл — Эдинбург Loganair 16:40, 06.08
BT 669 Airbus A220-300 Рига — Эдинбург Air Baltic 16:50, 06.08
U2 425 Airbus А320 Бристоль — Эдинбург Easyjet 17:00, 06.08
FR 7353 Boeing 737-800 Брюссель — Эдинбург Ryanair 17:00, 06.08
U2 504 Airbus А320 Бирмингем — Эдинбург Easyjet 17:00, 06.08
U2 6950 Airbus А320 Тенерифе — Эдинбург Easyjet 17:15, 06.08
LM 326 Embraer RJ145 Саутгемптон — Эдинбург Loganair 17:30, 06.08
FR 7893 Boeing 737-800 Гётеборг — Эдинбург Ryanair 17:35, 06.08
U2 17 Airbus A319 Лондон — Эдинбург Easyjet 17:40, 06.08
FR 1018 Boeing 737-800 Будапешт — Эдинбург Ryanair 18:20, 06.08
FR 814 Boeing 737-800 Дублин — Эдинбург Ryanair 18:20, 06.08
U2 487 Airbus А320 Белфаст — Эдинбург Easyjet 18:25, 06.08
U2 237 Airbus A319 Лондон — Эдинбург Easyjet 18:30, 06.08
U2 6996 Airbus А320 Мадрид — Эдинбург Easyjet 18:30, 06.08
EI 256 Airbus А320 Дублин — Эдинбург Aer Lingus 18:35, 06.08
FR 2675 Boeing 737-800 Копенгаген — Эдинбург Ryanair 18:35, 06.08
BA 8712 Embraer 190 Лондон — Эдинбург British Airways 18:40, 06.08
BA 1454 Airbus А320 Лондон — Эдинбург British Airways 19:00, 06.08
LM 356 ATR 42/ATR 72 FR/IT Сумбург — Эдинбург Loganair 19:40, 06.08
FR 6682 Boeing 737-800 Рим — Эдинбург Ryanair 19:45, 06.08
FR 6267 Boeing 737-800 Барселона — Эдинбург Ryanair 19:45, 06.08
U2 495 Airbus А320 Белфаст — Эдинбург Easyjet 19:55, 06.08
VY 7815 Airbus A320 Барселона — Эдинбург Vueling airlines 20:05, 06.08
FR 1053 Boeing 737-800 Прага — Эдинбург Ryanair 20:05, 06.08
LM 394 Saab SF340A/340B Керкуолл — Эдинбург Loganair 20:10, 06.08
BA 1458 Airbus A320 Лондон — Эдинбург British Airways 20:10, 06.08
U2 429 Airbus А320 Бристоль — Эдинбург Easyjet 20:25, 06.08
U2 19 Airbus А320 Лондон — Эдинбург Easyjet 20:30, 06.08
BA 8714 Embraer 190 Лондон — Эдинбург British Airways 20:40, 06.08
LM 318 Embraer RJ145 Эксетер — Эдинбург Loganair 20:45, 06.08
U2 811 Airbus А320 Лондон — Эдинбург Easyjet 20:45, 06.08
LM 307 Embraer RJ145 Норвич — Эдинбург Loganair 20:50, 06.08
U2 6964 Airbus А320 Джерси — Эдинбург Easyjet 21:05, 06.08
KL 1293 Embraer 190 Амстердам — Эдинбург KLM 21:35, 06.08
U2 431 Airbus А320 Бристоль — Эдинбург Easyjet 21:55, 06.08
FR 818 Boeing 737-800 Дублин — Эдинбург Ryanair 21:55, 06.08
U2 239 Airbus A319 Лондон — Эдинбург Easyjet 22:15, 06.08
FR 3181 Boeing 737-800 Стокгольм — Эдинбург Ryanair 22:15, 06.08
FR 6619 Boeing 737-800 Познань — Эдинбург Ryanair 22:25, 06.08
U2 813 Airbus А320 Лондон — Эдинбург Easyjet 22:25, 06.08
FR 1047 Boeing 737-800 Баден-Баден — Эдинбург Ryanair 23:25, 06.08
BA 1440 Airbus A320 NEO Лондон — Эдинбург British Airways 23:35, 06.08
FR 6622 Boeing 737-800 Тенерифе — Эдинбург Ryanair 23:40, 06.08
FR 2454 Boeing 737-800 Болонья — Эдинбург Ryanair 23:40, 06.08
FR 5615 Boeing 737-800 Бухарест — Эдинбург Ryanair 23:45, 06.08
FR 5578 Boeing 737-800 Аликанте — Эдинбург Ryanair 23:45, 06.08
FR 7922 Boeing 737-800 Гданьск — Эдинбург Ryanair 23:59, 06.08

 

Другие аэропорты этой страны:
Вы можете заказать обратный звонок прямо сейчас!